sensor_id;sensor_type;location;lat;lon;timestamp;P1;durP1;ratioP1;P2;durP2;ratioP2
86205;SDS011;76857;48.140;11.594;2024-03-22T05:02:36;12.85;;;6.50;;
86205;SDS011;76857;48.140;11.594;2024-03-22T05:05:02;12.70;;;7.38;;
86205;SDS011;76857;48.140;11.594;2024-03-22T05:07:27;12.38;;;6.25;;
86205;SDS011;76857;48.140;11.594;2024-03-22T05:09:53;13.25;;;7.00;;
86205;SDS011;76857;48.140;11.594;2024-03-22T05:12:18;11.50;;;6.65;;
86205;SDS011;76857;48.140;11.594;2024-03-22T05:14:44;11.77;;;7.20;;
86205;SDS011;76857;48.140;11.594;2024-03-22T05:17:09;11.50;;;6.78;;
86205;SDS011;76857;48.140;11.594;2024-03-22T05:19:35;12.15;;;6.53;;
86205;SDS011;76857;48.140;11.594;2024-03-22T05:22:00;12.18;;;7.18;;
86205;SDS011;76857;48.140;11.594;2024-03-22T05:24:26;13.95;;;7.25;;
86205;SDS011;76857;48.140;11.594;2024-03-22T05:26:52;11.23;;;6.45;;
86205;SDS011;76857;48.140;11.594;2024-03-22T05:29:18;11.32;;;6.32;;
86205;SDS011;76857;48.140;11.594;2024-03-22T05:31:47;11.35;;;6.63;;
86205;SDS011;76857;48.140;11.594;2024-03-22T05:34:14;13.18;;;6.70;;
86205;SDS011;76857;48.140;11.594;2024-03-22T05:36:40;11.02;;;6.05;;
86205;SDS011;76857;48.140;11.594;2024-03-22T05:39:06;11.52;;;6.18;;
86205;SDS011;76857;48.140;11.594;2024-03-22T05:41:31;10.95;;;6.38;;
86205;SDS011;76857;48.140;11.594;2024-03-22T05:43:57;12.85;;;6.65;;
86205;SDS011;76857;48.140;11.594;2024-03-22T05:46:22;10.20;;;6.25;;
86205;SDS011;76857;48.140;11.594;2024-03-22T05:48:48;12.88;;;6.05;;
86205;SDS011;76857;48.140;11.594;2024-03-22T05:51:15;13.13;;;6.63;;
86205;SDS011;76857;48.140;11.594;2024-03-22T05:53:41;9.43;;;5.82;;
86205;SDS011;76857;48.140;11.594;2024-03-22T05:56:07;12.60;;;7.05;;
86205;SDS011;76857;48.140;11.594;2024-03-22T05:58:33;9.27;;;5.80;;
86205;SDS011;76857;48.140;11.594;2024-03-22T06:00:59;10.18;;;5.60;;
86205;SDS011;76857;48.140;11.594;2024-03-22T06:03:24;12.00;;;5.75;;
86205;SDS011;76857;48.140;11.594;2024-03-22T06:05:50;11.07;;;6.07;;
86205;SDS011;76857;48.140;11.594;2024-03-22T06:08:20;12.15;;;5.78;;
86205;SDS011;76857;48.140;11.594;2024-03-22T06:10:45;10.27;;;5.38;;
86205;SDS011;76857;48.140;11.594;2024-03-22T06:13:11;10.13;;;5.72;;
86205;SDS011;76857;48.140;11.594;2024-03-22T06:15:36;9.93;;;5.65;;
86205;SDS011;76857;48.140;11.594;2024-03-22T06:18:02;10.20;;;5.70;;
86205;SDS011;76857;48.140;11.594;2024-03-22T06:20:27;9.63;;;5.75;;
86205;SDS011;76857;48.140;11.594;2024-03-22T06:22:53;11.05;;;5.60;;
86205;SDS011;76857;48.140;11.594;2024-03-22T06:25:18;9.73;;;5.25;;
86205;SDS011;76857;48.140;11.594;2024-03-22T06:27:44;10.07;;;6.05;;
86205;SDS011;76857;48.140;11.594;2024-03-22T06:30:09;9.27;;;5.55;;
86205;SDS011;76857;48.140;11.594;2024-03-22T06:32:35;10.07;;;5.00;;
86205;SDS011;76857;48.140;11.594;2024-03-22T06:35:01;10.27;;;5.20;;
86205;SDS011;76857;48.140;11.594;2024-03-22T06:37:28;11.85;;;4.78;;
86205;SDS011;76857;48.140;11.594;2024-03-22T06:39:53;8.55;;;4.88;;
86205;SDS011;76857;48.140;11.594;2024-03-22T06:42:19;9.07;;;5.07;;
86205;SDS011;76857;48.140;11.594;2024-03-22T06:44:44;9.88;;;4.47;;
86205;SDS011;76857;48.140;11.594;2024-03-22T06:47:10;9.07;;;4.90;;
86205;SDS011;76857;48.140;11.594;2024-03-22T06:49:35;7.75;;;4.82;;
86205;SDS011;76857;48.140;11.594;2024-03-22T06:52:01;9.10;;;4.90;;
86205;SDS011;76857;48.140;11.594;2024-03-22T06:54:26;7.53;;;5.30;;
86205;SDS011;76857;48.140;11.594;2024-03-22T06:56:52;8.88;;;5.18;;
86205;SDS011;76857;48.140;11.594;2024-03-22T06:59:17;9.13;;;4.82;;
86205;SDS011;76857;48.140;11.594;2024-03-22T07:01:43;7.38;;;4.45;;
86205;SDS011;76857;48.140;11.594;2024-03-22T07:04:08;7.85;;;4.68;;
86205;SDS011;76857;48.140;11.594;2024-03-22T07:06:34;6.75;;;4.68;;
86205;SDS011;76857;48.140;11.594;2024-03-22T07:08:59;8.63;;;4.68;;
86205;SDS011;76857;48.140;11.594;2024-03-22T07:11:25;8.82;;;4.20;;
86205;SDS011;76857;48.140;11.594;2024-03-22T07:13:50;7.40;;;4.38;;
86205;SDS011;76857;48.140;11.594;2024-03-22T07:16:16;8.00;;;4.65;;
86205;SDS011;76857;48.140;11.594;2024-03-22T07:18:41;6.65;;;4.15;;
86205;SDS011;76857;48.140;11.594;2024-03-22T07:21:07;9.20;;;4.80;;
86205;SDS011;76857;48.140;11.594;2024-03-22T07:23:32;6.88;;;5.00;;
86205;SDS011;76857;48.140;11.594;2024-03-22T07:25:58;7.95;;;4.55;;
86205;SDS011;76857;48.140;11.594;2024-03-22T07:28:24;6.85;;;4.55;;
86205;SDS011;76857;48.140;11.594;2024-03-22T07:30:50;7.32;;;4.07;;
86205;SDS011;76857;48.140;11.594;2024-03-22T07:33:15;7.20;;;4.53;;
86205;SDS011;76857;48.140;11.594;2024-03-22T07:35:43;6.05;;;4.03;;
86205;SDS011;76857;48.140;11.594;2024-03-22T07:38:09;8.02;;;4.53;;
86205;SDS011;76857;48.140;11.594;2024-03-22T07:40:35;10.32;;;5.03;;
86205;SDS011;76857;48.140;11.594;2024-03-22T07:43:01;10.80;;;5.22;;
86205;SDS011;76857;48.140;11.594;2024-03-22T07:45:31;15.45;;;8.43;;
86205;SDS011;76857;48.140;11.594;2024-03-22T07:47:57;11.63;;;5.53;;
86205;SDS011;76857;48.140;11.594;2024-03-22T07:50:23;8.45;;;4.25;;
86205;SDS011;76857;48.140;11.594;2024-03-22T07:52:48;15.73;;;8.25;;
86205;SDS011;76857;48.140;11.594;2024-03-22T07:55:13;9.43;;;4.68;;
86205;SDS011;76857;48.140;11.594;2024-03-22T07:57:39;8.80;;;5.13;;
86205;SDS011;76857;48.140;11.594;2024-03-22T08:00:05;9.95;;;4.70;;
86205;SDS011;76857;48.140;11.594;2024-03-22T08:02:31;7.38;;;4.53;;
86205;SDS011;76857;48.140;11.594;2024-03-22T08:04:57;8.85;;;4.45;;
86205;SDS011;76857;48.140;11.594;2024-03-22T08:07:22;9.88;;;4.85;;
86205;SDS011;76857;48.140;11.594;2024-03-22T08:09:48;9.02;;;4.57;;
86205;SDS011;76857;48.140;11.594;2024-03-22T08:12:13;7.45;;;4.50;;
86205;SDS011;76857;48.140;11.594;2024-03-22T08:14:39;7.47;;;4.70;;
86205;SDS011;76857;48.140;11.594;2024-03-22T08:17:04;6.53;;;4.30;;
86205;SDS011;76857;48.140;11.594;2024-03-22T08:19:31;6.50;;;4.25;;
86205;SDS011;76857;48.140;11.594;2024-03-22T08:21:57;7.47;;;4.05;;
86205;SDS011;76857;48.140;11.594;2024-03-22T08:24:23;7.57;;;4.60;;
86205;SDS011;76857;48.140;11.594;2024-03-22T08:26:49;6.07;;;4.32;;
86205;SDS011;76857;48.140;11.594;2024-03-22T08:29:15;10.43;;;5.20;;
86205;SDS011;76857;48.140;11.594;2024-03-22T08:31:41;9.23;;;4.55;;
86205;SDS011;76857;48.140;11.594;2024-03-22T08:34:07;6.80;;;4.05;;
86205;SDS011;76857;48.140;11.594;2024-03-22T08:36:33;8.23;;;4.68;;
86205;SDS011;76857;48.140;11.594;2024-03-22T08:38:59;9.10;;;4.43;;
86205;SDS011;76857;48.140;11.594;2024-03-22T08:41:25;5.80;;;4.13;;
86205;SDS011;76857;48.140;11.594;2024-03-22T08:43:50;7.13;;;4.60;;
86205;SDS011;76857;48.140;11.594;2024-03-22T08:46:16;8.18;;;4.57;;
86205;SDS011;76857;48.140;11.594;2024-03-22T08:48:41;6.40;;;4.60;;
86205;SDS011;76857;48.140;11.594;2024-03-22T08:51:07;8.48;;;4.32;;
86205;SDS011;76857;48.140;11.594;2024-03-22T08:53:32;7.22;;;4.35;;
86205;SDS011;76857;48.140;11.594;2024-03-22T08:55:58;5.63;;;3.75;;
86205;SDS011;76857;48.140;11.594;2024-03-22T08:58:24;6.00;;;3.72;;
86205;SDS011;76857;48.140;11.594;2024-03-22T09:00:49;9.70;;;4.30;;
86205;SDS011;76857;48.140;11.594;2024-03-22T09:03:14;6.32;;;4.18;;
86205;SDS011;76857;48.140;11.594;2024-03-22T09:05:40;7.00;;;4.32;;
86205;SDS011;76857;48.140;11.594;2024-03-22T09:08:06;6.70;;;4.20;;
86205;SDS011;76857;48.140;11.594;2024-03-22T09:10:32;8.65;;;4.20;;
86205;SDS011;76857;48.140;11.594;2024-03-22T09:12:57;12.13;;;4.50;;
86205;SDS011;76857;48.140;11.594;2024-03-22T09:15:23;7.75;;;4.47;;
86205;SDS011;76857;48.140;11.594;2024-03-22T09:17:49;6.53;;;3.92;;
86205;SDS011;76857;48.140;11.594;2024-03-22T09:20:15;11.18;;;4.20;;
86205;SDS011;76857;48.140;11.594;2024-03-22T09:22:40;8.60;;;3.90;;
86205;SDS011;76857;48.140;11.594;2024-03-22T09:25:06;6.00;;;3.90;;
86205;SDS011;76857;48.140;11.594;2024-03-22T09:27:32;8.05;;;4.25;;
86205;SDS011;76857;48.140;11.594;2024-03-22T09:29:58;8.45;;;4.00;;
86205;SDS011;76857;48.140;11.594;2024-03-22T09:32:23;8.95;;;4.70;;
86205;SDS011;76857;48.140;11.594;2024-03-22T09:34:49;8.00;;;3.92;;
86205;SDS011;76857;48.140;11.594;2024-03-22T09:37:17;7.13;;;3.85;;
86205;SDS011;76857;48.140;11.594;2024-03-22T09:39:43;8.98;;;4.30;;
86205;SDS011;76857;48.140;11.594;2024-03-22T09:42:09;6.10;;;4.13;;
86205;SDS011;76857;48.140;11.594;2024-03-22T09:44:41;8.70;;;3.85;;
86205;SDS011;76857;48.140;11.594;2024-03-22T09:47:16;8.25;;;3.45;;
86205;SDS011;76857;48.140;11.594;2024-03-22T09:49:43;11.93;;;3.80;;
86205;SDS011;76857;48.140;11.594;2024-03-22T09:52:13;9.95;;;3.30;;
86205;SDS011;76857;48.140;11.594;2024-03-22T09:54:43;6.47;;;3.30;;
86205;SDS011;76857;48.140;11.594;2024-03-22T09:57:13;6.97;;;3.67;;
86205;SDS011;76857;48.140;11.594;2024-03-22T09:59:42;6.13;;;3.50;;
86205;SDS011;76857;48.140;11.594;2024-03-22T10:02:10;5.00;;;3.30;;
86205;SDS011;76857;48.140;11.594;2024-03-22T10:04:37;8.27;;;3.33;;
86205;SDS011;76857;48.140;11.594;2024-03-22T10:07:03;7.93;;;3.50;;
86205;SDS011;76857;48.140;11.594;2024-03-22T10:09:29;5.65;;;3.55;;
86205;SDS011;76857;48.140;11.594;2024-03-22T10:11:56;10.85;;;3.13;;
86205;SDS011;76857;48.140;11.594;2024-03-22T10:14:22;4.60;;;3.05;;
86205;SDS011;76857;48.140;11.594;2024-03-22T10:16:50;5.60;;;3.20;;
86205;SDS011;76857;48.140;11.594;2024-03-22T10:19:22;8.82;;;3.22;;
86205;SDS011;76857;48.140;11.594;2024-03-22T10:26:53;7.45;;;3.40;;
86205;SDS011;76857;48.140;11.594;2024-03-22T10:29:19;7.93;;;3.20;;
86205;SDS011;76857;48.140;11.594;2024-03-22T10:31:47;5.30;;;3.33;;
86205;SDS011;76857;48.140;11.594;2024-03-22T10:34:13;6.47;;;3.50;;
86205;SDS011;76857;48.140;11.594;2024-03-22T10:36:40;7.88;;;3.10;;
86205;SDS011;76857;48.140;11.594;2024-03-22T10:39:06;6.30;;;3.45;;
86205;SDS011;76857;48.140;11.594;2024-03-22T10:41:33;5.38;;;3.03;;
86205;SDS011;76857;48.140;11.594;2024-03-22T10:43:59;5.88;;;3.45;;
86205;SDS011;76857;48.140;11.594;2024-03-22T10:46:29;4.88;;;3.08;;
86205;SDS011;76857;48.140;11.594;2024-03-22T10:48:56;5.32;;;3.10;;
86205;SDS011;76857;48.140;11.594;2024-03-22T10:51:23;5.90;;;3.20;;
86205;SDS011;76857;48.140;11.594;2024-03-22T10:56:19;4.28;;;2.90;;
86205;SDS011;76857;48.140;11.594;2024-03-22T10:58:47;6.53;;;2.97;;
86205;SDS011;76857;48.140;11.594;2024-03-22T11:01:24;7.93;;;3.65;;
86205;SDS011;76857;48.140;11.594;2024-03-22T11:03:50;5.47;;;3.20;;
86205;SDS011;76857;48.140;11.594;2024-03-22T11:06:19;6.13;;;3.60;;
86205;SDS011;76857;48.140;11.594;2024-03-22T11:08:49;5.35;;;3.70;;
86205;SDS011;76857;48.140;11.594;2024-03-22T11:11:17;7.18;;;3.92;;
86205;SDS011;76857;48.140;11.594;2024-03-22T11:13:46;5.88;;;3.72;;
86205;SDS011;76857;48.140;11.594;2024-03-22T11:16:13;5.45;;;3.00;;
86205;SDS011;76857;48.140;11.594;2024-03-22T11:18:40;6.93;;;3.60;;
86205;SDS011;76857;48.140;11.594;2024-03-22T11:21:06;8.55;;;2.92;;
86205;SDS011;76857;48.140;11.594;2024-03-22T11:23:35;6.25;;;3.22;;
86205;SDS011;76857;48.140;11.594;2024-03-22T11:26:02;7.30;;;3.30;;
86205;SDS011;76857;48.140;11.594;2024-03-22T11:28:28;5.90;;;3.20;;
86205;SDS011;76857;48.140;11.594;2024-03-22T11:30:54;7.57;;;3.40;;
86205;SDS011;76857;48.140;11.594;2024-03-22T11:33:20;6.38;;;3.38;;
86205;SDS011;76857;48.140;11.594;2024-03-22T11:35:46;5.63;;;3.40;;
86205;SDS011;76857;48.140;11.594;2024-03-22T11:38:11;6.18;;;3.47;;
86205;SDS011;76857;48.140;11.594;2024-03-22T11:40:37;5.63;;;3.40;;
86205;SDS011;76857;48.140;11.594;2024-03-22T11:43:02;6.20;;;3.35;;
86205;SDS011;76857;48.140;11.594;2024-03-22T11:45:29;4.72;;;3.20;;
86205;SDS011;76857;48.140;11.594;2024-03-22T11:48:01;6.38;;;3.70;;
86205;SDS011;76857;48.140;11.594;2024-03-22T11:50:27;6.95;;;3.40;;
86205;SDS011;76857;48.140;11.594;2024-03-22T11:52:53;5.45;;;2.97;;
86205;SDS011;76857;48.140;11.594;2024-03-22T11:55:18;5.78;;;2.95;;
86205;SDS011;76857;48.140;11.594;2024-03-22T11:57:50;5.47;;;3.25;;
86205;SDS011;76857;48.140;11.594;2024-03-22T12:00:17;8.25;;;3.85;;
86205;SDS011;76857;48.140;11.594;2024-03-22T12:02:44;6.38;;;3.28;;
86205;SDS011;76857;48.140;11.594;2024-03-22T12:05:10;4.82;;;3.47;;
86205;SDS011;76857;48.140;11.594;2024-03-22T12:07:36;6.45;;;3.72;;
86205;SDS011;76857;48.140;11.594;2024-03-22T12:10:01;6.13;;;3.70;;
86205;SDS011;76857;48.140;11.594;2024-03-22T12:12:28;5.82;;;3.58;;
86205;SDS011;76857;48.140;11.594;2024-03-22T12:14:54;7.90;;;3.53;;
86205;SDS011;76857;48.140;11.594;2024-03-22T12:17:20;6.18;;;3.50;;
86205;SDS011;76857;48.140;11.594;2024-03-22T12:19:45;6.07;;;3.25;;
86205;SDS011;76857;48.140;11.594;2024-03-22T12:22:11;4.93;;;3.05;;
86205;SDS011;76857;48.140;11.594;2024-03-22T12:24:37;6.38;;;3.78;;
86205;SDS011;76857;48.140;11.594;2024-03-22T12:27:02;5.38;;;3.22;;
86205;SDS011;76857;48.140;11.594;2024-03-22T12:29:28;7.15;;;3.28;;
86205;SDS011;76857;48.140;11.594;2024-03-22T12:31:54;5.78;;;3.45;;
86205;SDS011;76857;48.140;11.594;2024-03-22T12:34:20;5.55;;;3.30;;
86205;SDS011;76857;48.140;11.594;2024-03-22T12:36:45;4.97;;;3.40;;
86205;SDS011;76857;48.140;11.594;2024-03-22T12:39:11;5.63;;;3.17;;
86205;SDS011;76857;48.140;11.594;2024-03-22T12:41:36;5.45;;;2.90;;
86205;SDS011;76857;48.140;11.594;2024-03-22T12:44:02;4.82;;;3.22;;
86205;SDS011;76857;48.140;11.594;2024-03-22T12:46:28;5.50;;;3.28;;
86205;SDS011;76857;48.140;11.594;2024-03-22T12:48:54;5.90;;;2.92;;
86205;SDS011;76857;48.140;11.594;2024-03-22T12:51:19;5.65;;;3.35;;
86205;SDS011;76857;48.140;11.594;2024-03-22T12:53:45;4.90;;;3.22;;
86205;SDS011;76857;48.140;11.594;2024-03-22T12:56:11;4.03;;;2.92;;
86205;SDS011;76857;48.140;11.594;2024-03-22T12:58:37;5.75;;;3.55;;
86205;SDS011;76857;48.140;11.594;2024-03-22T13:01:03;4.68;;;3.33;;
86205;SDS011;76857;48.140;11.594;2024-03-22T13:03:33;5.40;;;3.25;;
86205;SDS011;76857;48.140;11.594;2024-03-22T13:05:58;4.43;;;3.13;;
86205;SDS011;76857;48.140;11.594;2024-03-22T13:08:24;6.55;;;3.47;;
86205;SDS011;76857;48.140;11.594;2024-03-22T13:10:49;5.35;;;2.85;;
86205;SDS011;76857;48.140;11.594;2024-03-22T13:13:15;7.47;;;3.38;;
86205;SDS011;76857;48.140;11.594;2024-03-22T13:15:44;6.47;;;3.08;;
86205;SDS011;76857;48.140;11.594;2024-03-22T13:18:12;5.20;;;3.25;;
86205;SDS011;76857;48.140;11.594;2024-03-22T13:20:38;4.22;;;2.95;;
86205;SDS011;76857;48.140;11.594;2024-03-22T13:23:04;6.80;;;3.03;;
86205;SDS011;76857;48.140;11.594;2024-03-22T13:25:30;7.65;;;2.65;;
86205;SDS011;76857;48.140;11.594;2024-03-22T13:27:55;6.30;;;2.80;;
86205;SDS011;76857;48.140;11.594;2024-03-22T13:30:21;7.15;;;2.90;;
86205;SDS011;76857;48.140;11.594;2024-03-22T13:32:47;3.95;;;2.75;;
86205;SDS011;76857;48.140;11.594;2024-03-22T13:35:12;5.05;;;2.78;;
86205;SDS011;76857;48.140;11.594;2024-03-22T13:37:39;3.95;;;2.60;;
86205;SDS011;76857;48.140;11.594;2024-03-22T13:40:04;6.35;;;2.28;;
86205;SDS011;76857;48.140;11.594;2024-03-22T13:42:30;4.60;;;2.40;;
86205;SDS011;76857;48.140;11.594;2024-03-22T13:44:56;5.60;;;2.25;;
86205;SDS011;76857;48.140;11.594;2024-03-22T13:47:27;4.50;;;2.10;;
86205;SDS011;76857;48.140;11.594;2024-03-22T13:49:55;6.07;;;2.90;;
86205;SDS011;76857;48.140;11.594;2024-03-22T13:52:21;2.97;;;1.75;;
86205;SDS011;76857;48.140;11.594;2024-03-22T13:54:46;5.28;;;2.15;;
86205;SDS011;76857;48.140;11.594;2024-03-22T13:57:12;3.75;;;2.25;;
86205;SDS011;76857;48.140;11.594;2024-03-22T13:59:38;3.65;;;1.90;;
86205;SDS011;76857;48.140;11.594;2024-03-22T14:02:05;3.22;;;1.58;;
86205;SDS011;76857;48.140;11.594;2024-03-22T14:04:31;4.10;;;1.73;;
86205;SDS011;76857;48.140;11.594;2024-03-22T14:06:57;4.22;;;2.17;;
86205;SDS011;76857;48.140;11.594;2024-03-22T14:09:22;4.88;;;1.90;;
86205;SDS011;76857;48.140;11.594;2024-03-22T14:11:48;4.18;;;2.10;;
86205;SDS011;76857;48.140;11.594;2024-03-22T14:14:14;4.28;;;1.73;;
86205;SDS011;76857;48.140;11.594;2024-03-22T14:16:40;3.63;;;1.58;;
86205;SDS011;76857;48.140;11.594;2024-03-22T14:19:09;4.15;;;1.98;;
86205;SDS011;76857;48.140;11.594;2024-03-22T14:21:36;3.35;;;1.50;;
86205;SDS011;76857;48.140;11.594;2024-03-22T14:24:03;2.35;;;1.83;;
86205;SDS011;76857;48.140;11.594;2024-03-22T14:26:29;3.40;;;1.83;;
86205;SDS011;76857;48.140;11.594;2024-03-22T14:28:55;2.92;;;1.70;;
86205;SDS011;76857;48.140;11.594;2024-03-22T14:31:20;3.50;;;1.90;;
86205;SDS011;76857;48.140;11.594;2024-03-22T14:33:46;3.03;;;1.25;;
86205;SDS011;76857;48.140;11.594;2024-03-22T14:36:11;2.30;;;1.35;;
86205;SDS011;76857;48.140;11.594;2024-03-22T14:38:38;2.47;;;1.50;;
86205;SDS011;76857;48.140;11.594;2024-03-22T14:41:04;3.63;;;1.60;;
86205;SDS011;76857;48.140;11.594;2024-03-22T14:43:29;4.53;;;1.60;;
86205;SDS011;76857;48.140;11.594;2024-03-22T14:46:01;2.90;;;1.48;;
86205;SDS011;76857;48.140;11.594;2024-03-22T14:48:29;4.38;;;1.77;;
86205;SDS011;76857;48.140;11.594;2024-03-22T14:50:54;2.15;;;1.30;;
86205;SDS011;76857;48.140;11.594;2024-03-22T14:53:20;4.50;;;1.70;;
86205;SDS011;76857;48.140;11.594;2024-03-22T14:55:56;2.92;;;1.48;;
86205;SDS011;76857;48.140;11.594;2024-03-22T14:58:27;5.72;;;1.60;;
86205;SDS011;76857;48.140;11.594;2024-03-22T15:03:19;2.97;;;1.60;;
86205;SDS011;76857;48.140;11.594;2024-03-22T15:05:44;2.28;;;1.20;;
86205;SDS011;76857;48.140;11.594;2024-03-22T15:08:10;2.70;;;1.40;;
86205;SDS011;76857;48.140;11.594;2024-03-22T15:10:36;2.78;;;1.13;;
86205;SDS011;76857;48.140;11.594;2024-03-22T15:13:02;2.30;;;1.00;;
86205;SDS011;76857;48.140;11.594;2024-03-22T15:15:28;4.40;;;1.10;;
86205;SDS011;76857;48.140;11.594;2024-03-22T15:17:55;3.55;;;1.58;;
86205;SDS011;76857;48.140;11.594;2024-03-22T15:20:20;2.72;;;1.08;;
86205;SDS011;76857;48.140;11.594;2024-03-22T15:22:46;3.83;;;1.10;;
86205;SDS011;76857;48.140;11.594;2024-03-22T15:25:11;3.67;;;1.20;;
86205;SDS011;76857;48.140;11.594;2024-03-22T15:27:37;4.47;;;1.10;;
86205;SDS011;76857;48.140;11.594;2024-03-22T15:30:02;2.67;;;1.30;;
86205;SDS011;76857;48.140;11.594;2024-03-22T15:32:31;2.40;;;1.13;;
86205;SDS011;76857;48.140;11.594;2024-03-22T15:34:56;3.40;;;1.30;;
86205;SDS011;76857;48.140;11.594;2024-03-22T15:37:22;4.05;;;1.55;;
86205;SDS011;76857;48.140;11.594;2024-03-22T15:39:47;2.70;;;1.33;;
86205;SDS011;76857;48.140;11.594;2024-03-22T15:42:13;2.92;;;1.27;;
86205;SDS011;76857;48.140;11.594;2024-03-22T15:44:38;3.78;;;1.20;;
86205;SDS011;76857;48.140;11.594;2024-03-22T15:47:04;3.22;;;1.20;;
86205;SDS011;76857;48.140;11.594;2024-03-22T15:49:29;3.53;;;1.27;;
86205;SDS011;76857;48.140;11.594;2024-03-22T15:51:55;3.55;;;1.30;;
86205;SDS011;76857;48.140;11.594;2024-03-22T15:54:21;3.17;;;1.40;;
86205;SDS011;76857;48.140;11.594;2024-03-22T15:56:47;3.80;;;1.00;;
86205;SDS011;76857;48.140;11.594;2024-03-22T15:59:12;4.22;;;1.45;;
86205;SDS011;76857;48.140;11.594;2024-03-22T16:01:39;3.22;;;1.48;;
86205;SDS011;76857;48.140;11.594;2024-03-22T16:04:04;3.72;;;1.25;;
86205;SDS011;76857;48.140;11.594;2024-03-22T16:06:31;2.50;;;1.10;;
86205;SDS011;76857;48.140;11.594;2024-03-22T16:08:56;2.40;;;0.90;;
86205;SDS011;76857;48.140;11.594;2024-03-22T16:11:21;3.83;;;1.20;;
86205;SDS011;76857;48.140;11.594;2024-03-22T16:13:47;2.45;;;0.85;;
86205;SDS011;76857;48.140;11.594;2024-03-22T16:16:12;2.88;;;1.10;;
86205;SDS011;76857;48.140;11.594;2024-03-22T16:18:38;1.67;;;0.82;;
86205;SDS011;76857;48.140;11.594;2024-03-22T16:21:03;3.03;;;0.95;;
86205;SDS011;76857;48.140;11.594;2024-03-22T16:23:29;2.40;;;1.20;;
86205;SDS011;76857;48.140;11.594;2024-03-22T16:25:54;3.60;;;1.20;;
86205;SDS011;76857;48.140;11.594;2024-03-22T16:28:20;3.42;;;1.02;;
86205;SDS011;76857;48.140;11.594;2024-03-22T16:30:45;3.65;;;1.30;;
86205;SDS011;76857;48.140;11.594;2024-03-22T16:33:11;2.00;;;0.98;;
86205;SDS011;76857;48.140;11.594;2024-03-22T16:35:36;2.85;;;1.00;;
86205;SDS011;76857;48.140;11.594;2024-03-22T16:38:01;3.50;;;1.08;;
86205;SDS011;76857;48.140;11.594;2024-03-22T16:40:27;3.17;;;1.00;;
86205;SDS011;76857;48.140;11.594;2024-03-22T16:42:53;4.38;;;1.23;;
86205;SDS011;76857;48.140;11.594;2024-03-22T16:45:19;2.78;;;1.20;;
86205;SDS011;76857;48.140;11.594;2024-03-22T16:47:44;3.17;;;1.40;;
86205;SDS011;76857;48.140;11.594;2024-03-22T16:50:10;3.47;;;1.10;;
86205;SDS011;76857;48.140;11.594;2024-03-22T16:52:38;8.32;;;4.75;;
86205;SDS011;76857;48.140;11.594;2024-03-22T16:55:04;3.70;;;1.73;;
86205;SDS011;76857;48.140;11.594;2024-03-22T16:57:33;5.18;;;2.15;;
86205;SDS011;76857;48.140;11.594;2024-03-22T16:59:58;3.20;;;1.23;;
86205;SDS011;76857;48.140;11.594;2024-03-22T17:02:24;4.18;;;1.25;;
86205;SDS011;76857;48.140;11.594;2024-03-22T17:04:49;3.25;;;1.38;;
86205;SDS011;76857;48.140;11.594;2024-03-22T17:07:15;3.70;;;1.55;;
86205;SDS011;76857;48.140;11.594;2024-03-22T17:09:40;4.13;;;1.40;;
86205;SDS011;76857;48.140;11.594;2024-03-22T17:12:06;2.17;;;1.20;;
86205;SDS011;76857;48.140;11.594;2024-03-22T17:14:32;2.08;;;1.10;;
86205;SDS011;76857;48.140;11.594;2024-03-22T17:16:57;2.30;;;1.10;;
86205;SDS011;76857;48.140;11.594;2024-03-22T17:19:24;1.98;;;1.20;;
86205;SDS011;76857;48.140;11.594;2024-03-22T17:21:50;3.60;;;1.38;;
86205;SDS011;76857;48.140;11.594;2024-03-22T17:24:16;3.53;;;1.65;;
86205;SDS011;76857;48.140;11.594;2024-03-22T17:26:42;6.20;;;1.77;;
86205;SDS011;76857;48.140;11.594;2024-03-22T17:29:08;4.47;;;1.73;;
86205;SDS011;76857;48.140;11.594;2024-03-22T17:31:35;3.15;;;1.60;;
86205;SDS011;76857;48.140;11.594;2024-03-22T17:34:01;6.70;;;1.63;;
86205;SDS011;76857;48.140;11.594;2024-03-22T17:36:27;5.00;;;1.83;;
86205;SDS011;76857;48.140;11.594;2024-03-22T17:38:53;5.45;;;2.00;;
86205;SDS011;76857;48.140;11.594;2024-03-22T17:41:18;6.85;;;2.10;;
86205;SDS011;76857;48.140;11.594;2024-03-22T17:43:48;6.15;;;2.00;;
86205;SDS011;76857;48.140;11.594;2024-03-22T17:46:14;4.57;;;1.90;;
86205;SDS011;76857;48.140;11.594;2024-03-22T17:48:40;5.30;;;1.73;;
86205;SDS011;76857;48.140;11.594;2024-03-22T17:51:06;4.88;;;1.83;;
86205;SDS011;76857;48.140;11.594;2024-03-22T17:53:31;6.72;;;2.08;;
86205;SDS011;76857;48.140;11.594;2024-03-22T17:55:57;8.00;;;1.80;;
86205;SDS011;76857;48.140;11.594;2024-03-22T17:58:22;4.78;;;2.45;;
86205;SDS011;76857;48.140;11.594;2024-03-22T18:00:48;8.45;;;2.78;;
86205;SDS011;76857;48.140;11.594;2024-03-22T18:03:13;8.77;;;2.97;;
86205;SDS011;76857;48.140;11.594;2024-03-22T18:05:39;5.97;;;2.00;;
86205;SDS011;76857;48.140;11.594;2024-03-22T18:08:04;5.45;;;2.45;;
86205;SDS011;76857;48.140;11.594;2024-03-22T18:10:30;5.97;;;2.08;;
86205;SDS011;76857;48.140;11.594;2024-03-22T18:12:56;4.07;;;2.10;;
86205;SDS011;76857;48.140;11.594;2024-03-22T18:15:24;7.85;;;2.55;;
86205;SDS011;76857;48.140;11.594;2024-03-22T18:17:51;4.93;;;2.22;;
86205;SDS011;76857;48.140;11.594;2024-03-22T18:20:17;7.13;;;2.80;;
86205;SDS011;76857;48.140;11.594;2024-03-22T18:22:46;7.00;;;3.00;;
86205;SDS011;76857;48.140;11.594;2024-03-22T18:25:12;7.30;;;2.20;;
86205;SDS011;76857;48.140;11.594;2024-03-22T18:27:38;8.40;;;2.55;;
86205;SDS011;76857;48.140;11.594;2024-03-22T18:30:04;10.05;;;3.10;;
86205;SDS011;76857;48.140;11.594;2024-03-22T18:32:31;8.55;;;2.65;;
86205;SDS011;76857;48.140;11.594;2024-03-22T18:34:56;7.05;;;2.65;;
86205;SDS011;76857;48.140;11.594;2024-03-22T18:37:22;7.70;;;2.35;;
86205;SDS011;76857;48.140;11.594;2024-03-22T18:39:47;12.70;;;3.60;;
86205;SDS011;76857;48.140;11.594;2024-03-22T18:42:13;5.40;;;2.30;;
86205;SDS011;76857;48.140;11.594;2024-03-22T18:44:39;5.47;;;2.67;;
86205;SDS011;76857;48.140;11.594;2024-03-22T18:47:06;4.80;;;2.20;;
86205;SDS011;76857;48.140;11.594;2024-03-22T18:49:32;5.85;;;2.88;;
86205;SDS011;76857;48.140;11.594;2024-03-22T18:51:58;9.15;;;2.85;;
86205;SDS011;76857;48.140;11.594;2024-03-22T18:54:23;6.13;;;2.63;;
86205;SDS011;76857;48.140;11.594;2024-03-22T18:56:49;7.32;;;2.40;;
86205;SDS011;76857;48.140;11.594;2024-03-22T18:59:15;10.13;;;2.35;;
86205;SDS011;76857;48.140;11.594;2024-03-22T19:01:40;7.18;;;3.13;;
86205;SDS011;76857;48.140;11.594;2024-03-22T19:04:06;7.97;;;4.00;;
86205;SDS011;76857;48.140;11.594;2024-03-22T19:06:32;7.75;;;3.85;;
86205;SDS011;76857;48.140;11.594;2024-03-22T19:08:57;7.65;;;3.90;;
86205;SDS011;76857;48.140;11.594;2024-03-22T19:11:23;9.75;;;3.72;;
86205;SDS011;76857;48.140;11.594;2024-03-22T19:13:48;9.95;;;4.25;;
86205;SDS011;76857;48.140;11.594;2024-03-22T19:16:14;9.25;;;4.35;;
86205;SDS011;76857;48.140;11.594;2024-03-22T19:18:39;6.22;;;3.53;;
86205;SDS011;76857;48.140;11.594;2024-03-22T19:21:05;9.90;;;4.50;;
86205;SDS011;76857;48.140;11.594;2024-03-22T19:23:32;8.65;;;4.80;;
86205;SDS011;76857;48.140;11.594;2024-03-22T19:25:58;8.88;;;4.25;;
86205;SDS011;76857;48.140;11.594;2024-03-22T19:28:24;10.35;;;4.35;;
86205;SDS011;76857;48.140;11.594;2024-03-22T19:30:52;9.00;;;4.20;;
86205;SDS011;76857;48.140;11.594;2024-03-22T19:33:22;8.40;;;3.78;;
86205;SDS011;76857;48.140;11.594;2024-03-22T19:35:49;12.60;;;5.07;;
86205;SDS011;76857;48.140;11.594;2024-03-22T19:38:14;8.02;;;3.88;;